TimeAKDT,TemperatureF,Dew PointF,Humidity,Sea Level PressureIn,VisibilityMPH,Wind Direction,Wind SpeedMPH,Gust SpeedMPH,PrecipitationIn,Events,Conditions,WindDirDegrees,DateUTC
12:16 AM,55.4,53.6,94,30.05,3.0,South,13.8,-,N/A,,Overcast,180,2013-07-16 08:16:00
12:36 AM,55.4,53.6,94,30.05,10.0,South,17.3,21.9,N/A,,Overcast,180,2013-07-16 08:36:00
12:56 AM,55.4,53.6,94,30.05,9.0,South,16.1,-,N/A,,Overcast,190,2013-07-16 08:56:00
1:16 AM,55.4,53.6,94,30.05,10.0,South,15.0,-,N/A,,Overcast,190,2013-07-16 09:16:00
1:36 AM,55.4,53.6,94,30.05,10.0,South,13.8,-,N/A,,Overcast,190,2013-07-16 09:36:00
1:56 AM,55.4,53.6,94,30.05,10.0,South,16.1,-,N/A,,Overcast,180,2013-07-16 09:56:00
2:16 AM,55.4,53.6,94,30.06,10.0,South,15.0,-,N/A,,Overcast,190,2013-07-16 10:16:00
2:36 AM,55.4,53.6,94,30.06,10.0,South,12.7,-,N/A,,Overcast,190,2013-07-16 10:36:00
2:56 AM,55.4,53.6,94,30.05,10.0,South,15.0,-,N/A,,Mostly Cloudy,190,2013-07-16 10:56:00
3:16 AM,55.4,53.6,94,30.05,8.0,South,16.1,-,N/A,,Overcast,180,2013-07-16 11:16:00
3:36 AM,53.6,53.6,100,30.05,9.0,South,13.8,-,N/A,,Overcast,190,2013-07-16 11:36:00
3:56 AM,53.6,51.8,94,30.05,9.0,SSW,8.1,-,N/A,,Overcast,210,2013-07-16 11:56:00
4:16 AM,53.6,51.8,94,30.05,10.0,SSW,6.9,-,N/A,,Overcast,210,2013-07-16 12:16:00
4:36 AM,53.6,51.8,94,30.06,10.0,SW,6.9,-,N/A,,Overcast,230,2013-07-16 12:36:00
4:56 AM,53.6,51.8,94,30.06,7.0,WSW,10.4,-,N/A,,Overcast,240,2013-07-16 12:56:00
5:16 AM,51.8,50.0,94,30.05,10.0,SW,10.4,-,N/A,,Mostly Cloudy,230,2013-07-16 13:16:00
5:36 AM,51.8,50.0,94,30.06,10.0,SW,10.4,-,N/A,,Mostly Cloudy,230,2013-07-16 13:36:00
5:56 AM,51.8,50.0,94,30.06,10.0,SW,9.2,-,N/A,,Overcast,220,2013-07-16 13:56:00
6:16 AM,51.8,50.0,94,30.06,10.0,SW,6.9,-,N/A,,Overcast,220,2013-07-16 14:16:00
6:36 AM,51.8,50.0,94,30.06,5.0,SW,8.1,-,N/A,,Overcast,230,2013-07-16 14:36:00
6:56 AM,51.8,50.0,94,30.06,10.0,SW,8.1,-,N/A,,Overcast,220,2013-07-16 14:56:00
7:16 AM,51.8,48.2,88,30.06,10.0,SSW,12.7,-,N/A,,Overcast,210,2013-07-16 15:16:00
7:36 AM,51.8,48.2,88,30.07,10.0,SSW,11.5,-,0.02,,Overcast,200,2013-07-16 15:36:00
7:56 AM,51.8,48.2,88,30.07,10.0,SSW,11.5,-,0.02,,Overcast,210,2013-07-16 15:56:00
8:16 AM,50.0,48.2,94,30.07,10.0,SW,8.1,-,N/A,,Overcast,220,2013-07-16 16:16:00
8:36 AM,50.0,48.2,94,30.07,10.0,SSW,9.2,-,N/A,,Overcast,200,2013-07-16 16:36:00
8:56 AM,50.0,48.2,94,30.07,9.0,SSW,12.7,-,N/A,,Overcast,200,2013-07-16 16:56:00
9:16 AM,48.2,48.2,100,30.08,10.0,SSW,13.8,-,0.01,,Overcast,210,2013-07-16 17:16:00
9:36 AM,50.0,46.4,87,30.08,10.0,SW,10.4,-,0.01,,Overcast,220,2013-07-16 17:36:00
9:56 AM,50.0,46.4,87,30.09,10.0,SSW,10.4,-,0.01,,Overcast,200,2013-07-16 17:56:00
10:16 AM,48.2,46.4,93,30.09,10.0,SW,5.8,-,N/A,,Overcast,220,2013-07-16 18:16:00
10:36 AM,50.0,46.4,87,30.10,10.0,SSW,6.9,-,N/A,,Overcast,200,2013-07-16 18:36:00
10:56 AM,50.0,46.4,87,30.10,10.0,South,5.8,-,N/A,,Overcast,170,2013-07-16 18:56:00
11:16 AM,51.8,46.4,82,30.10,10.0,SSW,8.1,-,N/A,,Overcast,210,2013-07-16 19:16:00
11:36 AM,51.8,48.2,88,30.10,10.0,SW,8.1,-,N/A,,Overcast,220,2013-07-16 19:36:00
11:56 AM,51.8,48.2,88,30.11,10.0,SSW,10.4,-,N/A,,Overcast,200,2013-07-16 19:56:00
12:16 PM,51.8,48.2,88,30.11,10.0,SW,8.1,-,N/A,,Overcast,220,2013-07-16 20:16:00
1:36 PM,51.8,48.2,88,30.11,10.0,SW,9.2,16.1,N/A,,Overcast,220,2013-07-16 21:36:00
1:56 PM,51.8,48.2,88,30.12,10.0,WSW,8.1,-,N/A,,Overcast,250,2013-07-16 21:56:00
2:16 PM,51.8,48.2,88,30.12,10.0,SW,8.1,-,N/A,,Overcast,230,2013-07-16 22:16:00
2:36 PM,51.8,48.2,88,30.12,10.0,WSW,8.1,-,N/A,,Overcast,240,2013-07-16 22:36:00
2:56 PM,51.8,48.2,88,30.12,10.0,SSW,6.9,-,0.01,,Overcast,210,2013-07-16 22:56:00
3:16 PM,51.8,48.2,88,30.12,10.0,SW,8.1,-,N/A,,Overcast,220,2013-07-16 23:16:00
3:36 PM,51.8,48.2,88,30.12,10.0,SW,6.9,-,N/A,,Overcast,230,2013-07-16 23:36:00
3:56 PM,51.8,48.2,88,30.12,8.0,WSW,4.6,-,N/A,,Overcast,240,2013-07-16 23:56:00
4:16 PM,51.8,48.2,88,30.11,10.0,WSW,5.8,-,N/A,,Overcast,240,2013-07-17 00:16:00
4:36 PM,51.8,48.2,88,30.11,10.0,SW,8.1,-,N/A,,Overcast,230,2013-07-17 00:36:00
4:56 PM,51.8,48.2,88,30.11,10.0,WSW,9.2,-,N/A,,Overcast,240,2013-07-17 00:56:00
5:16 PM,51.8,48.2,88,30.11,10.0,SW,10.4,-,N/A,,Overcast,230,2013-07-17 01:16:00
5:36 PM,51.8,48.2,88,30.11,10.0,SW,9.2,-,N/A,,Overcast,230,2013-07-17 01:36:00
5:56 PM,51.8,48.2,88,30.11,7.0,SW,8.1,-,N/A,,Overcast,230,2013-07-17 01:56:00
6:16 PM,51.8,48.2,88,30.11,10.0,WSW,6.9,-,N/A,,Overcast,240,2013-07-17 02:16:00
6:36 PM,51.8,48.2,88,30.11,10.0,WSW,8.1,-,N/A,,Overcast,240,2013-07-17 02:36:00
6:56 PM,51.8,48.2,88,30.11,10.0,WSW,5.8,-,N/A,,Overcast,240,2013-07-17 02:56:00
7:16 PM,51.8,48.2,88,30.11,10.0,SW,8.1,-,N/A,,Overcast,230,2013-07-17 03:16:00
7:36 PM,51.8,48.2,88,30.11,10.0,SW,8.1,-,N/A,,Overcast,230,2013-07-17 03:36:00
7:56 PM,51.8,48.2,88,30.11,10.0,WSW,5.8,-,N/A,,Overcast,240,2013-07-17 03:56:00
8:16 PM,51.8,48.2,88,30.10,10.0,WSW,8.1,-,N/A,,Overcast,240,2013-07-17 04:16:00
8:36 PM,51.8,48.2,88,30.10,10.0,WSW,9.2,-,N/A,,Overcast,240,2013-07-17 04:36:00
8:56 PM,51.8,48.2,88,30.10,10.0,WSW,5.8,-,N/A,,Overcast,250,2013-07-17 04:56:00
9:16 PM,51.8,48.2,88,30.10,10.0,WSW,4.6,-,N/A,,Mostly Cloudy,240,2013-07-17 05:16:00
9:36 PM,51.8,46.4,82,30.10,10.0,SW,5.8,-,0.02,,Overcast,220,2013-07-17 05:36:00
9:56 PM,51.8,48.2,88,30.10,10.0,SW,6.9,-,0.02,,Overcast,220,2013-07-17 05:56:00
10:16 PM,51.8,48.2,88,30.10,10.0,SSW,3.5,-,N/A,,Overcast,200,2013-07-17 06:16:00
10:36 PM,51.8,48.2,88,30.10,10.0,SSW,4.6,-,N/A,,Overcast,200,2013-07-17 06:36:00
10:56 PM,51.8,48.2,88,30.10,10.0,SSW,6.9,-,N/A,,Overcast,200,2013-07-17 06:56:00
11:16 PM,51.8,48.2,88,30.10,10.0,SW,6.9,-,N/A,,Overcast,220,2013-07-17 07:16:00
11:36 PM,51.8,48.2,88,30.10,10.0,WSW,4.6,-,N/A,,Overcast,240,2013-07-17 07:36:00
11:56 PM,51.8,48.2,88,30.10,10.0,WSW,4.6,-,N/A,,Overcast,250,2013-07-17 07:56:00